Time;durP1;ratioP1;P1;durP2;ratioP2;P2;SDS_P1;SDS_P2;PMS_P1;PMS_P2;Temp;Humidity;BMP_temperature;BMP_pressure;BME280_temperature;BME280_humidity;BME280_pressure;Samples;Min_cycle;Max_cycle;Signal;HPM_P1;HPM_P2
2023/09/26 06:46:30;;;;;;;8.43;7.47;;;;;;;14.75;100.00;100123.47;2575417;23;20555;-88
2023/09/26 06:48:59;;;;;;;10.17;7.23;;;;;;;14.87;100.00;100118.91;4912662;29;20230;-88
2023/09/26 06:51:30;;;;;;;9.23;7.23;;;;;;;14.99;100.00;100119.72;4907951;29;20205;-87
2023/09/26 06:54:00;;;;;;;7.50;6.70;;;;;;;15.13;100.00;100122.16;4891938;29;20204;-88
2023/09/26 06:56:30;;;;;;;8.37;6.63;;;;;;;15.26;100.00;100124.59;4926756;29;20847;-90
2023/09/26 06:59:02;;;;;;;8.23;7.33;;;;;;;15.40;100.00;100123.25;4887269;29;20206;-89
2023/09/26 07:01:33;;;;;;;8.77;6.87;;;;;;;15.52;100.00;100123.28;4904520;29;20237;-90
2023/09/26 07:04:00;;;;;;;10.20;7.13;;;;;;;15.67;100.00;100120.88;4905748;29;20300;-90
2023/09/26 07:06:27;;;;;;;9.40;6.80;;;;;;;15.79;100.00;100122.47;4921223;29;20297;-89
2023/09/26 07:08:57;;;;;;;7.23;6.60;;;;;;;15.90;100.00;100114.56;4905331;29;20286;-91
2023/09/26 07:11:27;;;;;;;7.97;6.73;;;;;;;16.06;100.00;100117.28;4903320;29;20611;-91
2023/09/26 07:13:54;;;;;;;7.60;6.90;;;;;;;16.19;100.00;100116.16;4902352;29;20750;-90
2023/09/26 07:16:33;;;;;;;7.13;6.50;;;;;;;16.32;100.00;100123.94;4903707;29;20236;-90
2023/09/26 07:19:01;;;;;;;8.20;6.40;;;;;;;16.42;100.00;100109.78;4904058;29;20206;-90
2023/09/26 07:21:33;;;;;;;7.43;6.30;;;;;;;16.55;100.00;100109.44;4887785;29;20214;-89
2023/09/26 07:24:09;;;;;;;7.43;6.73;;;;;;;16.68;100.00;100122.66;4919986;29;20240;-90
2023/09/26 07:26:36;;;;;;;7.93;6.63;;;;;;;16.80;100.00;100117.16;4920174;29;20202;-90
2023/09/26 07:29:07;;;;;;;8.83;6.53;;;;;;;16.89;100.00;100115.66;4903754;29;20206;-89
2023/09/26 07:31:39;;;;;;;8.80;6.33;;;;;;;17.01;100.00;100113.66;4903810;29;20214;-88
2023/09/26 07:34:06;;;;;;;7.57;6.70;;;;;;;17.14;100.00;100114.13;4894033;29;20206;-89
2023/09/26 07:36:43;;;;;;;8.37;6.90;;;;;;;17.23;100.00;100117.22;4884545;29;20211;-89
2023/09/26 07:39:11;;;;;;;8.60;7.40;;;;;;;17.36;100.00;100122.25;4920011;29;20197;-89
2023/09/26 07:41:38;;;;;;;11.50;7.27;;;;;;;17.43;100.00;100116.66;4903658;29;20217;-89
2023/09/26 07:44:08;;;;;;;10.47;7.60;;;;;;;17.53;100.00;100119.47;4906972;29;20280;-89
2023/09/26 07:46:35;;;;;;;10.97;6.80;;;;;;;17.64;100.00;100113.13;4922110;29;20280;-89
2023/09/26 07:49:05;;;;;;;10.03;7.67;;;;;;;17.77;100.00;100123.59;4906784;29;20709;-89
2023/09/26 07:51:35;;;;;;;10.23;7.27;;;;;;;17.88;100.00;100114.47;4906921;29;20590;-89
2023/09/26 07:54:04;;;;;;;9.40;8.00;;;;;;;17.95;100.00;100114.28;4906083;29;20285;-89
2023/09/26 07:56:35;;;;;;;8.87;7.23;;;;;;;18.08;100.00;100113.88;4891372;29;20224;-89
2023/09/26 07:59:03;;;;;;;11.13;7.73;;;;;;;18.18;100.00;100113.97;4908846;29;20202;-89
2023/09/26 08:01:34;;;;;;;8.73;7.80;;;;;;;18.20;100.00;100108.25;4890842;29;20211;-89
2023/09/26 08:04:01;;;;;;;8.97;7.97;;;;;;;18.32;100.00;100117.88;4905544;29;20206;-90
2023/09/26 08:06:31;;;;;;;10.23;7.40;;;;;;;18.49;100.00;100113.13;4907129;29;20213;-89
2023/09/26 08:08:57;;;;;;;8.03;7.20;;;;;;;18.61;100.00;100109.47;4891905;29;20218;-89
2023/09/26 08:11:27;;;;;;;8.47;7.50;;;;;;;18.67;100.00;100111.09;4901829;29;20239;-88
2023/09/26 08:13:55;;;;;;;9.87;7.50;;;;;;;18.79;100.00;100122.63;4906368;29;20208;-89
2023/09/26 08:16:23;;;;;;;9.67;7.97;;;;;;;18.84;100.00;100118.03;4890962;29;20200;-89
2023/09/26 08:18:50;;;;;;;8.00;7.17;;;;;;;18.89;100.00;100117.25;4911300;29;20670;-90
2023/09/26 08:21:18;;;;;;;8.10;7.03;;;;;;;18.98;100.00;100114.84;4904714;29;20239;-88
2023/09/26 08:23:46;;;;;;;10.90;7.50;;;;;;;19.07;100.00;100119.53;4904583;29;20555;-89
2023/09/26 08:26:16;;;;;;;8.83;7.40;;;;;;;19.08;100.00;100123.88;4912442;29;20204;-89
2023/09/26 08:28:54;;;;;;;9.27;7.37;;;;;;;19.19;100.00;100122.03;4909010;29;20319;-90
2023/09/26 08:31:21;;;;;;;9.33;7.40;;;;;;;19.24;100.00;100116.63;4910858;29;20209;-89
2023/09/26 08:33:50;;;;;;;9.87;6.87;;;;;;;19.40;100.00;100109.34;4921028;29;20206;-89
2023/09/26 08:36:20;;;;;;;8.50;7.70;;;;;;;19.38;100.00;100108.78;4921453;29;20226;-89
2023/09/26 08:38:50;;;;;;;8.30;7.03;;;;;;;19.39;100.00;100116.69;4905749;29;20244;-89
2023/09/26 08:41:18;;;;;;;8.93;7.03;;;;;;;19.45;100.00;100114.84;4910708;29;20212;-88
2023/09/26 08:43:47;;;;;;;10.13;7.00;;;;;;;19.56;100.00;100106.44;4890943;29;20213;-89
2023/09/26 08:46:15;;;;;;;7.47;6.77;;;;;;;19.69;100.00;100107.88;4905491;29;20215;-88
2023/09/26 08:48:42;;;;;;;7.47;6.63;;;;;;;19.83;100.00;100108.97;4908641;29;20229;-89
2023/09/26 08:51:13;;;;;;;9.30;7.07;;;;;;;19.82;100.00;100103.81;4911814;29;20203;-88
2023/09/26 08:53:41;;;;;;;10.70;6.60;;;;;;;20.04;100.00;100099.78;4889591;29;20290;-87
2023/09/26 08:56:15;;;;;;;8.53;7.07;;;;;;;20.05;100.00;100093.25;4907772;29;20237;-88
2023/09/26 08:58:45;;;;;;;8.67;7.03;;;;;;;20.16;100.00;100092.16;4935373;29;20294;-89
2023/09/26 09:01:12;;;;;;;9.93;7.23;;;;;;;20.32;100.00;100089.47;4909055;29;20379;-89
2023/09/26 09:03:39;;;;;;;8.37;6.57;;;;;;;20.41;100.00;100093.28;4908857;29;20779;-89
2023/09/26 09:06:06;;;;;;;8.00;7.03;;;;;;;20.49;100.00;100082.66;4895142;29;20249;-89
2023/09/26 09:08:35;;;;;;;9.73;6.53;;;;;;;20.72;100.00;100081.25;4905573;29;20237;-88
2023/09/26 09:11:06;;;;;;;9.23;6.50;;;;;;;20.91;100.00;100078.78;4905368;29;20240;-88
2023/09/26 09:13:37;;;;;;;9.60;6.40;;;;;;;21.03;100.00;100082.84;4904400;29;20222;-89
2023/09/26 09:16:12;;;;;;;8.88;6.10;;;;;;;21.24;100.00;100088.22;4905276;29;20225;-88
2023/09/26 09:18:44;;;;;;;9.45;6.68;;;;;;;21.43;100.00;100086.50;4906228;29;20253;-88
2023/09/26 09:21:32;;;;;;;9.10;6.38;;;;;;;21.51;100.00;100081.28;4920361;29;20770;-88
2023/09/26 09:24:05;;;;;;;10.90;6.25;;;;;;;21.70;100.00;100081.47;4905569;29;20209;-88
2023/09/26 09:26:39;;;;;;;8.48;5.97;;;;;;;21.77;100.00;100068.34;4905404;29;20209;-87
2023/09/26 09:29:19;;;;;;;6.63;5.80;;;;;;;21.85;100.00;100065.00;4904231;29;20222;-88
2023/09/26 09:31:48;;;;;;;7.57;5.80;;;;;;;21.94;100.00;100060.59;4908027;29;20677;-88
2023/09/26 09:34:15;;;;;;;8.63;5.95;;;;;;;21.98;100.00;100065.50;4889337;29;20255;-86
2023/09/26 09:36:44;;;;;;;7.68;5.97;;;;;;;22.02;100.00;100069.31;4889777;29;20259;-89
2023/09/26 09:39:12;;;;;;;7.50;6.35;;;;;;;22.12;100.00;100055.56;4878377;29;20676;-88
2023/09/26 09:41:41;;;;;;;7.32;5.70;;;;;;;22.22;100.00;100050.03;4897415;29;20214;-88
2023/09/26 09:44:08;;;;;;;8.18;5.50;;;;;;;22.38;100.00;100055.06;4893929;29;20332;-88
2023/09/26 09:46:38;;;;;;;6.72;5.20;;;;;;;22.56;100.00;100050.81;4888769;29;20238;-88
2023/09/26 09:49:12;;;;;;;7.55;4.78;;;;;;;22.60;100.00;100043.66;4888773;29;20228;-88
2023/09/26 09:51:45;;;;;;;7.72;5.68;;;;;;;22.69;100.00;100039.19;4873662;29;20206;-88
2023/09/26 09:54:22;;;;;;;7.57;5.53;;;;;;;22.85;100.00;100031.69;4903497;29;20615;-89
2023/09/26 09:56:53;;;;;;;7.65;5.57;;;;;;;22.93;100.00;100036.50;4903558;29;20300;-89
2023/09/26 09:59:22;;;;;;;9.38;5.07;;;;;;;23.05;100.00;100030.66;4885224;29;20257;-88
2023/09/26 10:01:55;;;;;;;6.55;5.05;;;;;;;23.12;100.00;100023.69;4899754;29;20304;-89
2023/09/26 10:04:27;;;;;;;6.90;4.82;;;;;;;23.26;100.00;100027.34;4919826;29;20194;-88
2023/09/26 10:06:55;;;;;;;7.25;4.63;;;;;;;23.34;100.00;100017.66;4888343;29;20207;-89
2023/09/26 10:09:25;;;;;;;7.30;5.55;;;;;;;23.45;100.00;100012.91;4889919;29;20816;-89
2023/09/26 10:11:56;;;;;;;5.72;4.57;;;;;;;;;;4904413;29;20574;-89
2023/09/26 10:14:28;;;;;;;8.40;4.60;;;;;;;23.62;100.00;100005.81;4923766;29;20200;-89
2023/09/26 10:16:57;;;;;;;5.43;4.30;;;;;;;23.81;100.00;100003.06;4888941;29;20302;-88
2023/09/26 10:19:27;;;;;;;6.55;4.45;;;;;;;24.01;100.00;100005.47;4888251;29;20211;-89
2023/09/26 10:22:20;;;;;;;5.38;4.50;;;;;;;24.36;100.00;100003.25;4914419;29;20691;-88
2023/09/26 10:24:50;;;;;;;6.40;4.43;;;;;;;24.66;100.00;99994.47;4906433;29;20212;-89
2023/09/26 10:27:23;;;;;;;5.60;4.72;;;;;;;24.89;100.00;99998.97;4911040;29;20219;-89
2023/09/26 10:30:20;;;;;;;5.43;4.88;;;;;;;25.21;100.00;99994.47;4907094;29;20295;-89
2023/09/26 10:32:58;;;;;;;8.05;4.13;;;;;;;25.40;100.00;99986.91;4927935;29;20247;-88
2023/09/26 10:35:28;;;;;;;6.32;4.43;;;;;;;25.41;100.00;99991.28;4888539;29;20213;-88
2023/09/26 10:38:18;;;;;;;5.68;3.97;;;;;;;25.44;100.00;99985.16;4888761;29;20206;-88
2023/09/26 10:40:47;;;;;;;5.95;4.40;;;;;;;25.46;100.00;99990.34;4904050;29;20296;-89
2023/09/26 10:43:15;;;;;;;6.82;5.00;;;;;;;25.43;100.00;99991.78;4880446;29;20204;-88
2023/09/26 10:45:46;;;;;;;6.85;4.47;;;;;;;25.57;100.00;99984.34;4905394;29;20288;-88
2023/09/26 10:48:22;;;;;;;7.50;4.65;;;;;;;25.49;100.00;99986.97;4905068;29;20242;-88
2023/09/26 10:50:50;;;;;;;5.13;4.50;;;;;;;25.55;100.00;99983.84;4928727;29;20201;-89
2023/09/26 10:53:21;;;;;;;5.30;4.38;;;;;;;25.50;100.00;99977.63;4922244;29;20284;-89
2023/09/26 10:55:50;;;;;;;5.95;4.93;;;;;;;25.38;100.00;99976.25;4913435;29;20206;-89
2023/09/26 10:58:23;;;;;;;7.05;4.82;;;;;;;25.24;100.00;99980.94;4936205;29;20205;-88
2023/09/26 11:00:51;;;;;;;5.95;5.32;;;;;;;25.25;100.00;99977.09;4930628;29;20210;-89
2023/09/26 11:03:21;;;;;;;9.73;5.13;;;;;;;25.19;100.00;99977.53;4898734;29;20293;-88
2023/09/26 11:05:51;;;;;;;7.63;4.88;;;;;;;25.37;100.00;99968.34;4912684;29;20233;-89
2023/09/26 11:08:25;;;;;;;8.82;5.32;;;;;;;25.56;100.00;99970.97;4907728;29;20221;-88
2023/09/26 11:10:53;;;;;;;6.05;4.90;;;;;;;25.61;100.00;99968.09;4922171;29;20212;-88
2023/09/26 11:13:25;;;;;;;8.95;5.35;;;;;;;25.59;100.00;99971.13;4923828;29;20216;-88
2023/09/26 11:15:55;;;;;;;7.40;5.32;;;;;;;25.64;100.00;99973.75;4919942;29;20212;-89
2023/09/26 11:18:22;;;;;;;5.88;5.25;;;;;;;25.80;100.00;99966.75;4906535;29;20202;-89
2023/09/26 11:20:52;;;;;;;7.45;5.63;;;;;;;25.88;100.00;99957.00;4910732;29;20212;-89
2023/09/26 11:23:45;;;;;;;8.23;7.40;;;;;;;26.07;100.00;99962.28;4918125;28;20221;-88
2023/09/26 11:26:15;;;;;;;7.03;5.35;;;;;;;26.22;100.00;99959.19;4929993;29;20229;-88
2023/09/26 11:28:46;;;;;;;6.05;4.57;;;;;;;26.22;100.00;99951.72;4911148;29;20317;-89
2023/09/26 11:31:17;;;;;;;8.93;5.18;;;;;;;26.36;100.00;99951.66;4910130;29;20232;-88
2023/09/26 11:33:45;;;;;;;8.60;5.05;;;;;;;26.32;100.00;99956.13;4916484;29;20205;-88
2023/09/26 11:36:17;;;;;;;10.05;5.45;;;;;;;26.35;100.00;99949.22;4906907;29;20292;-88
2023/09/26 11:38:54;;;;;;;7.80;6.20;;;;;;;26.34;100.00;99947.59;4922620;29;20206;-88
2023/09/26 11:41:24;;;;;;;7.03;4.88;;;;;;;26.28;100.00;99938.66;4907677;29;20209;-89
2023/09/26 11:44:11;;;;;;;8.90;6.60;;;;;;;26.28;100.00;99935.91;4920918;29;20206;-88
2023/09/26 11:46:53;;;;;;;8.07;5.30;;;;;;;26.15;100.00;99931.31;4918847;29;20247;-89
2023/09/26 11:49:23;;;;;;;8.57;5.22;;;;;;;26.17;100.00;99926.31;4925792;29;20216;-89
2023/09/26 11:51:53;;;;;;;6.95;5.15;;;;;;;26.16;100.00;99932.94;4910192;29;20215;-89
2023/09/26 11:54:20;;;;;;;8.90;5.18;;;;;;;26.09;100.00;99927.88;4909464;29;20205;-89
2023/09/26 11:56:48;;;;;;;7.43;4.68;;;;;;;26.08;100.00;99923.50;4926197;29;20248;-89
2023/09/26 11:59:23;;;;;;;6.15;4.95;;;;;;;26.13;100.00;99926.13;4925804;29;20264;-89
2023/09/26 12:01:51;;;;;;;7.20;5.25;;;;;;;26.21;100.00;99928.16;4943430;29;20213;-88
2023/09/26 12:04:21;;;;;;;5.88;4.93;;;;;;;26.34;100.00;99926.41;4924267;29;20219;-89
2023/09/26 12:06:48;;;;;;;9.25;5.28;;;;;;;26.22;100.00;99916.03;4922234;29;20209;-88
2023/09/26 12:09:20;;;;;;;6.78;4.85;;;;;;;26.35;100.00;99921.75;4909328;29;20261;-89
2023/09/26 12:11:49;;;;;;;5.10;4.60;;;;;;;26.38;100.00;99918.34;4943702;29;20260;-89
2023/09/26 12:14:17;;;;;;;7.82;4.90;;;;;;;26.25;100.00;99915.41;4922577;29;20689;-89
2023/09/26 12:16:51;;;;;;;9.48;5.60;;;;;;;26.04;100.00;99916.22;4941153;29;20197;-89
2023/09/26 12:19:22;;;;;;;5.40;4.90;;;;;;;26.15;100.00;99917.56;4925462;29;20201;-88
2023/09/26 12:21:50;;;;;;;8.18;4.97;;;;;;;26.29;100.00;99916.38;4956253;28;20211;-88
2023/09/26 12:24:18;;;;;;;6.68;5.20;;;;;;;26.38;100.00;99918.34;4920620;29;20675;-89
2023/09/26 12:26:48;;;;;;;5.53;4.85;;;;;;;26.47;100.00;99910.94;4912234;29;20209;-88
2023/09/26 12:29:16;;;;;;;7.82;5.00;;;;;;;26.45;100.00;99905.78;4909759;28;20236;-89
2023/09/26 12:31:56;;;;;;;6.65;5.13;;;;;;;26.36;100.00;99902.22;4914133;29;20559;-89
2023/09/26 12:34:24;;;;;;;6.68;4.90;;;;;;;26.53;100.00;99901.44;4922889;29;20236;-89
2023/09/26 12:36:51;;;;;;;8.07;5.28;;;;;;;26.65;100.00;99904.38;4917201;29;20589;-88
2023/09/26 12:39:21;;;;;;;8.82;4.82;;;;;;;26.67;100.00;99889.22;4924442;29;20201;-87
2023/09/26 12:41:48;;;;;;;6.70;5.15;;;;;;;26.65;100.00;99885.97;4916037;29;20221;-88
2023/09/26 12:44:15;;;;;;;9.07;4.95;;;;;;;26.66;100.00;99887.59;4905030;29;20249;-88
2023/09/26 12:46:42;;;;;;;7.75;4.78;;;;;;;26.67;100.00;99880.16;4908417;29;20616;-88
2023/09/26 12:49:10;;;;;;;5.32;4.82;;;;;;;26.71;100.00;99883.88;4924407;29;20240;-89
2023/09/26 12:51:38;;;;;;;5.40;4.90;;;;;;;26.82;100.00;99885.19;4925974;29;20292;-89
2023/09/26 12:54:06;;;;;;;6.03;4.60;;;;;;;26.94;100.00;99879.91;4926700;29;20201;-89
2023/09/26 12:56:33;;;;;;;6.35;5.18;;;;;;;26.92;100.00;99884.13;4911436;29;20221;-89
2023/09/26 12:59:00;;;;;;;4.88;4.40;;;;;;;26.87;100.00;99871.34;4908455;29;20201;-89
2023/09/26 13:01:32;;;;;;;5.88;4.68;;;;;;;26.92;100.00;99868.41;4924227;29;20197;-89
2023/09/26 13:04:06;;;;;;;10.85;4.70;;;;;;;26.88;100.00;99869.38;4923052;29;20717;-88
2023/09/26 13:06:33;;;;;;;9.45;4.75;;;;;;;26.97;100.00;99876.50;4907827;29;20272;-89
2023/09/26 13:09:01;;;;;;;7.10;4.70;;;;;;;26.98;100.00;99874.56;4900879;29;20273;-88
2023/09/26 13:11:30;;;;;;;7.60;4.53;;;;;;;27.16;100.00;99876.19;4922608;29;20257;-88
2023/09/26 13:13:57;;;;;;;7.95;4.40;;;;;;;27.28;100.00;99870.88;4923584;29;20285;-88
2023/09/26 13:16:42;;;;;;;4.78;4.22;;;;;;;27.23;100.00;99872.97;4915193;29;20658;-89
2023/09/26 13:19:10;;;;;;;8.52;5.28;;;;;;;27.17;100.00;99864.06;4905167;29;20205;-88
2023/09/26 13:21:37;;;;;;;10.30;4.78;;;;;;;27.20;100.00;99873.63;4924384;29;20224;-88
2023/09/26 13:24:06;;;;;;;5.78;4.40;;;;;;;27.34;100.00;99860.50;4912977;29;20206;-88
2023/09/26 13:26:33;;;;;;;6.15;4.63;;;;;;;27.35;100.00;99859.34;4911551;29;20209;-88
2023/09/26 13:29:02;;;;;;;8.80;4.88;;;;;;;27.28;100.00;99857.09;4924476;29;20221;-88
2023/09/26 13:31:32;;;;;;;9.55;4.20;;;;;;;27.20;100.00;99854.38;4906006;29;20205;-88
2023/09/26 13:34:02;;;;;;;6.72;4.35;;;;;;;27.15;100.00;99860.84;4900976;29;20276;-88
2023/09/26 13:36:31;;;;;;;9.18;4.93;;;;;;;27.09;100.00;99860.19;4910318;28;20204;-88
2023/09/26 13:39:06;;;;;;;10.23;5.00;;;;;;;27.08;100.00;99857.75;4908287;29;20363;-89
2023/09/26 13:41:35;;;;;;;6.00;5.38;;;;;;;27.12;100.00;99865.03;4928864;29;20231;-88
2023/09/26 13:44:05;;;;;;;8.30;4.30;;;;;;;27.01;100.00;99860.19;4899825;29;20208;-88
2023/09/26 13:46:33;;;;;;;6.65;4.68;;;;;;;27.17;100.00;99859.38;4917745;29;20193;-89
2023/09/26 13:49:02;;;;;;;6.88;4.88;;;;;;;27.04;100.00;99865.03;4938944;29;20213;-89
2023/09/26 13:51:30;;;;;;;6.95;4.25;;;;;;;27.05;100.00;99867.47;4923511;29;20198;-89
2023/09/26 13:54:00;;;;;;;8.10;5.20;;;;;;;27.02;100.00;99865.34;4908506;29;20217;-88
2023/09/26 13:56:31;;;;;;;6.25;4.78;;;;;;;27.03;100.00;99855.16;4948945;29;20210;-88
2023/09/26 13:59:00;;;;;;;8.38;5.68;;;;;;;26.91;100.00;99847.56;4946208;29;20194;-88
2023/09/26 14:01:32;;;;;;;6.53;4.55;;;;;;;26.91;100.00;99855.00;4933039;29;20197;-88
2023/09/26 14:04:02;;;;;;;5.43;4.45;;;;;;;26.92;100.00;99853.88;4906895;29;20204;-86
2023/09/26 14:06:34;;;;;;;6.25;4.60;;;;;;;26.97;100.00;99856.47;4937255;29;20201;-86
2023/09/26 14:09:04;;;;;;;7.15;4.80;;;;;;;26.85;100.00;99846.06;4938947;29;20227;-86
2023/09/26 14:11:33;;;;;;;6.18;4.68;;;;;;;26.72;100.00;99850.59;4949104;29;20200;-86
2023/09/26 14:14:01;;;;;;;5.07;4.50;;;;;;;26.78;100.00;99850.44;4954589;29;20284;-85
2023/09/26 14:16:36;;;;;;;6.35;4.88;;;;;;;26.65;100.00;99849.41;4951676;29;20217;-86
2023/09/26 14:19:13;;;;;;;6.30;4.75;;;;;;;26.78;100.00;99854.00;4955569;28;20201;-85
2023/09/26 14:21:40;;;;;;;8.50;4.93;;;;;;;26.73;100.00;99851.41;4930232;29;20201;-85
2023/09/26 14:24:08;;;;;;;8.93;4.90;;;;;;;26.74;100.00;99851.06;4931422;29;20201;-86
2023/09/26 14:26:36;;;;;;;5.97;5.28;;;;;;;26.64;100.00;99850.56;4954120;28;20209;-86
2023/09/26 14:29:07;;;;;;;8.60;5.10;;;;;;;26.65;100.00;99854.91;4931371;29;20213;-86
2023/09/26 14:31:42;;;;;;;7.15;4.90;;;;;;;26.60;100.00;99852.31;4918769;29;20228;-85
2023/09/26 14:34:09;;;;;;;9.52;5.05;;;;;;;26.47;100.00;99854.06;4907061;29;20723;-86
2023/09/26 14:36:39;;;;;;;7.72;4.80;;;;;;;26.48;100.00;99852.94;4926201;29;20203;-86
2023/09/26 14:39:09;;;;;;;5.95;4.78;;;;;;;26.54;100.00;99856.38;4934383;29;20287;-86
2023/09/26 14:41:36;;;;;;;5.40;4.82;;;;;;;26.40;100.00;99858.44;4929865;29;20277;-85
2023/09/26 14:44:03;;;;;;;5.88;4.90;;;;;;;26.23;100.00;99856.41;4949538;29;20204;-86
2023/09/26 14:46:34;;;;;;;10.45;4.90;;;;;;;26.27;100.00;99865.63;4932120;29;20220;-85
2023/09/26 14:49:02;;;;;;;6.78;5.15;;;;;;;26.19;100.00;99858.16;4952994;28;20760;-84
2023/09/26 14:51:37;;;;;;;7.35;5.00;;;;;;;26.22;100.00;99863.84;4952997;28;20204;-85
2023/09/26 14:54:13;;;;;;;7.05;5.03;;;;;;;26.04;100.00;99853.06;4940926;29;20201;-86
2023/09/26 14:56:46;;;;;;;6.22;5.43;;;;;;;26.08;100.00;99860.34;4937618;28;20631;-85
2023/09/26 14:59:16;;;;;;;8.20;5.72;;;;;;;26.06;100.00;99859.88;4958822;28;20231;-85
2023/09/26 15:01:44;;;;;;;7.28;5.10;;;;;;;26.05;100.00;99855.50;4964735;28;20192;-84
2023/09/26 15:04:12;;;;;;;6.22;5.55;;;;;;;25.97;100.00;99855.47;4923408;29;20546;-85
2023/09/26 15:06:39;;;;;;;6.35;5.20;;;;;;;25.93;100.00;99855.31;4958919;28;20203;-85
2023/09/26 15:09:09;;;;;;;8.35;4.93;;;;;;;25.89;100.00;99850.75;4966945;28;20287;-87
2023/09/26 15:11:37;;;;;;;8.02;4.97;;;;;;;25.85;100.00;99854.13;4945890;29;20207;-86
2023/09/26 15:14:07;;;;;;;6.00;5.15;;;;;;;25.82;100.00;99854.75;4943897;29;20196;-86
2023/09/26 15:16:42;;;;;;;7.18;4.80;;;;;;;25.74;100.00;99858.28;4913315;29;20205;-86
2023/09/26 15:19:10;;;;;;;7.97;4.90;;;;;;;25.60;100.00;99856.72;4927746;29;20209;-86
2023/09/26 15:21:40;;;;;;;8.10;5.30;;;;;;;25.55;100.00;99854.94;4927927;28;20279;-86
2023/09/26 15:24:10;;;;;;;5.03;4.53;;;;;;;25.58;100.00;99859.78;4943678;29;20196;-87
2023/09/26 15:26:38;;;;;;;6.97;5.22;;;;;;;25.55;100.00;99863.16;4931226;29;20315;-86
2023/09/26 15:29:06;;;;;;;6.05;5.45;;;;;;;25.46;100.00;99853.22;4944941;29;20698;-87
2023/09/26 15:31:34;;;;;;;6.63;5.07;;;;;;;25.33;100.00;99860.38;4923906;29;20679;-86
2023/09/26 15:34:05;;;;;;;5.75;5.20;;;;;;;25.30;100.00;99856.31;4927516;29;20304;-86
2023/09/26 15:36:37;;;;;;;6.07;4.95;;;;;;;25.15;100.00;99862.16;4937852;29;20673;-87
2023/09/26 15:39:07;;;;;;;6.97;5.28;;;;;;;25.09;100.00;99852.47;4926910;29;20283;-88
2023/09/26 15:41:38;;;;;;;8.02;5.18;;;;;;;25.09;100.00;99857.94;4934082;29;20662;-87
2023/09/26 15:44:09;;;;;;;8.20;4.97;;;;;;;24.97;100.00;99854.91;4922080;29;20236;-88
2023/09/26 15:46:38;;;;;;;6.88;5.30;;;;;;;24.85;100.00;99862.84;4920611;29;20209;-86
2023/09/26 15:49:11;;;;;;;7.07;5.47;;;;;;;24.71;100.00;99851.09;4924160;29;20475;-86
2023/09/26 15:51:50;;;;;;;7.43;5.53;;;;;;;24.60;100.00;99860.66;4947062;28;20200;-86
2023/09/26 15:54:17;;;;;;;8.07;5.40;;;;;;;24.54;100.00;99863.50;4929398;28;20224;-87
2023/09/26 15:56:46;;;;;;;7.80;5.75;;;;;;;24.45;100.00;99870.81;4923877;29;20231;-87
2023/09/26 15:59:18;;;;;;;6.93;6.05;;;;;;;24.45;100.00;99862.59;4927803;29;20665;-87
2023/09/26 16:01:46;;;;;;;8.93;5.97;;;;;;;24.36;100.00;99869.06;4927272;28;20216;-86
2023/09/26 16:04:14;;;;;;;7.32;5.93;;;;;;;24.33;100.00;99869.69;4941752;28;20733;-87
2023/09/26 16:06:46;;;;;;;9.18;6.20;;;;;;;24.14;100.00;99867.84;4911353;29;20201;-86
2023/09/26 16:09:16;;;;;;;8.13;5.88;;;;;;;24.00;100.00;99863.47;4934396;29;20265;-87
2023/09/26 16:11:47;;;;;;;7.72;6.43;;;;;;;23.93;100.00;99868.53;4902688;29;20236;-86
2023/09/26 16:14:14;;;;;;;7.28;6.57;;;;;;;23.90;100.00;99869.13;4918898;29;20210;-86
2023/09/26 16:16:41;;;;;;;8.93;7.38;;;;;;;23.75;100.00;99862.00;4949516;29;20226;-88
2023/09/26 16:19:09;;;;;;;7.10;6.40;;;;;;;23.62;100.00;99870.97;4926522;29;20224;-87
2023/09/26 16:21:50;;;;;;;7.97;6.97;;;;;;;23.51;100.00;99873.09;4926543;29;20204;-87
2023/09/26 16:24:17;;;;;;;8.63;6.72;;;;;;;23.45;100.00;99860.59;4908481;29;20205;-87
2023/09/26 16:26:47;;;;;;;9.20;7.32;;;;;;;23.33;100.00;99865.69;4928186;29;20252;-86
2023/09/26 16:29:16;;;;;;;9.93;7.25;;;;;;;23.22;100.00;99870.50;4932907;29;20764;-87
2023/09/26 16:31:44;;;;;;;8.30;7.35;;;;;;;23.13;100.00;99869.56;4923885;29;20243;-87
2023/09/26 16:34:11;;;;;;;8.23;6.80;;;;;;;23.05;100.00;99872.16;4939123;28;20210;-87
2023/09/26 16:36:43;;;;;;;10.73;7.65;;;;;;;22.98;100.00;99867.03;4895922;29;20210;-86
2023/09/26 16:39:14;;;;;;;8.20;7.40;;;;;;;22.90;100.00;99869.63;4922039;29;20325;-87
2023/09/26 16:41:44;;;;;;;9.68;7.75;;;;;;;22.83;100.00;99879.00;4939921;29;20285;-87
2023/09/26 16:44:11;;;;;;;9.27;7.65;;;;;;;22.72;100.00;99880.22;4924437;29;20208;-88
2023/09/26 16:46:42;;;;;;;8.15;7.18;;;;;;;22.67;100.00;99883.03;4924250;29;20291;-87
2023/09/26 16:49:13;;;;;;;10.13;7.78;;;;;;;22.58;100.00;99882.03;4940017;29;20232;-88
2023/09/26 16:51:45;;;;;;;8.88;7.97;;;;;;;22.44;100.00;99883.03;4924047;29;20213;-89
2023/09/26 16:54:16;;;;;;;10.60;7.80;;;;;;;22.34;100.00;99884.78;4915860;29;20649;-87
2023/09/26 16:56:44;;;;;;;8.65;7.78;;;;;;;22.27;100.00;99881.59;4900746;29;20227;-87
2023/09/26 16:59:13;;;;;;;10.35;8.35;;;;;;;22.20;100.00;99885.78;4900322;29;20206;-87
2023/09/26 17:01:42;;;;;;;8.63;7.82;;;;;;;22.13;100.00;99886.09;4885303;29;20270;-87
2023/09/26 17:04:12;;;;;;;9.35;8.07;;;;;;;22.08;100.00;99893.53;4891471;29;20214;-88
2023/09/26 17:06:42;;;;;;;9.40;8.40;;;;;;;22.05;100.00;99888.66;4904272;29;20208;-87
2023/09/26 17:09:10;;;;;;;10.30;8.60;;;;;;;21.93;100.00;99892.56;4884939;29;20219;-87
2023/09/26 17:11:37;;;;;;;8.35;7.55;;;;;;;21.81;100.00;99894.84;4869494;29;20701;-88
2023/09/26 17:14:09;;;;;;;8.82;8.02;;;;;;;21.73;100.00;99898.22;4881166;29;20222;-87
2023/09/26 17:16:36;;;;;;;9.15;8.23;;;;;;;21.72;100.00;99893.03;4884988;29;20213;-87
2023/09/26 17:19:07;;;;;;;9.07;8.18;;;;;;;21.57;100.00;99895.88;4899964;29;20205;-87
2023/09/26 17:21:35;;;;;;;9.45;8.38;;;;;;;21.48;100.00;99896.50;4893758;29;20206;-87
2023/09/26 17:24:04;;;;;;;9.07;8.15;;;;;;;21.44;100.00;99895.44;4893482;29;20226;-88
2023/09/26 17:26:34;;;;;;;10.40;8.73;;;;;;;21.46;100.00;99904.13;4899351;29;20221;-87
2023/09/26 17:29:04;;;;;;;10.60;9.55;;;;;;;21.37;100.00;99902.31;4902785;29;20588;-87
2023/09/26 17:31:36;;;;;;;16.70;15.07;;;;;;;21.35;100.00;99899.06;4882253;29;20245;-86
2023/09/26 17:34:03;;;;;;;12.07;10.95;;;;;;;21.22;100.00;99903.25;4895751;29;20300;-87
2023/09/26 17:36:32;;;;;;;11.13;9.93;;;;;;;21.19;100.00;99900.25;4930017;29;20206;-87
2023/09/26 17:39:03;;;;;;;16.10;11.13;;;;;;;21.09;100.00;99907.34;4933682;29;20201;-87
2023/09/26 17:41:31;;;;;;;11.75;10.30;;;;;;;21.04;100.00;99912.84;4938428;29;20239;-87
2023/09/26 17:43:59;;;;;;;11.68;10.55;;;;;;;20.96;100.00;99907.97;4901874;29;20209;-87
2023/09/26 17:46:28;;;;;;;12.85;10.18;;;;;;;20.90;100.00;99917.28;4939989;29;20207;-87
2023/09/26 17:48:54;;;;;;;16.55;15.10;;;;;;;20.82;100.00;99915.13;4919116;29;20234;-87
2023/09/26 17:51:22;;;;;;;25.75;23.85;;;;;;;20.75;100.00;99916.53;4937910;28;20225;-87
2023/09/26 17:53:52;;;;;;;18.45;15.88;;;;;;;20.73;100.00;99916.00;4923290;29;20193;-87
2023/09/26 17:56:21;;;;;;;14.18;12.85;;;;;;;20.65;100.00;99920.13;4907325;28;20220;-88
2023/09/26 17:58:52;;;;;;;11.55;10.43;;;;;;;20.58;100.00;99925.03;4908095;29;20200;-88
2023/09/26 18:01:20;;;;;;;11.32;10.23;;;;;;;20.48;100.00;99919.66;4909957;28;20242;-87
2023/09/26 18:03:48;;;;;;;12.52;10.38;;;;;;;20.46;100.00;99927.28;4923350;28;20197;-89
2023/09/26 18:06:27;;;;;;;13.15;11.85;;;;;;;20.43;100.00;99923.22;4959183;28;20196;-89
2023/09/26 18:08:57;;;;;;;18.20;16.35;;;;;;;20.40;100.00;99929.19;4923858;28;20653;-87
2023/09/26 18:11:34;;;;;;;17.20;15.60;;;;;;;20.35;100.00;99926.47;4938583;28;20220;-87
2023/09/26 18:14:05;;;;;;;18.35;16.75;;;;;;;20.30;100.00;99926.50;4952557;28;20216;-85
2023/09/26 18:16:41;;;;;;;16.98;15.38;;;;;;;20.27;100.00;99935.19;4954777;28;20278;-88
2023/09/26 18:19:12;;;;;;;13.77;12.52;;;;;;;20.22;100.00;99933.28;4953725;28;20284;-86
2023/09/26 18:21:39;;;;;;;11.70;10.40;;;;;;;20.18;100.00;99934.94;4937201;28;20247;-87